KSVE/SVE METAR and TAF weather

Enter ICAO airport designator
Station Type Date Time Source
KSVE METAR 2024/04/17 18:15 UTC NOAA

KSVE 171815Z AUTO 09005KT 10SM CLR 14/03 A3017 RMK AO2


Station Type Date Time Source
KSVE Decoded METAR 2024/04/17 18:15 UTC NOAA

Susanville Municipal, CA, United States (KSVE) 40-23N 120-34W
Apr 17, 2024 - 02:15 PM EDT / 2024.04.17 1815 UTC
Wind: from the E (090 degrees) at 6 MPH (5 KT):0
Visibility: 10 mile(s):0
Sky conditions: clear
Temperature: 57 F (14 C)
Dew Point: 37 F (3 C)
Relative Humidity: 47%
Pressure (altimeter): 30.17 in. Hg (1021 hPa)
ob: KSVE 171815Z AUTO 09005KT 10SM CLR 14/03 A3017 RMK AO2
cycle: 18

Station Type Date Time Source
KSVE TAF UTC NOAA

Error!

Example: see airport list